This is the latest recevied weather packets stored in our database for station/object kj4yre. If no packets are shown the sender has not sent any weather packets the latest 10 day(s).
| Time | Temp. | Humidity | Pressure | Rain* | Wind** | Luminosity | Snow |
|---|---|---|---|---|---|---|---|
| 1777533304 | 13.89° C | 100% | 1007.1 hPa | 0 mm | - | - | - |
| 1777531206 | 15° C | 100% | 1006.9 hPa | 0 mm | - | - | - |
| 1777528805 | 15.56° C | 98% | 1007.5 hPa | 0 mm | - | - | - |
| 1777527606 | 16.11° C | 97% | 1007.9 hPa | 0 mm | - | - | - |
| 1777523705 | 16.11° C | 94% | 1008.6 hPa | 0 mm | - | - | - |
| 1777521904 | 16.11° C | 94% | 1008.4 hPa | 0 mm | - | - | - |
| 1777516806 | 16.11° C | 91% | 1009.1 hPa | 0 mm | - | - | - |
| 1777514706 | 16.11° C | 90% | 1009.2 hPa | 0 mm | - | - | - |
| 1777503907 | 17.78° C | 82% | 1009.2 hPa | 0 mm | - | - | - |
| 1777493106 | 21.11° C | 73% | 1010.6 hPa | 0 mm | - | - | - |
| 1777482306 | 20.56° C | 71% | 1013.6 hPa | 0 mm | - | - | - |
| 1777478705 | 20.56° C | 72% | 1014.3 hPa | 0 mm | - | - | - |
| 1777477806 | 21.67° C | 69% | 1014.3 hPa | 0 mm | - | - | - |
| 1777468505 | 14.44° C | 89% | 1016.5 hPa | 0 mm | - | - | - |
| 1777468205 | 14.44° C | 89% | 1016.6 hPa | 0 mm | - | - | - |
| 1777467004 | 13.89° C | 90% | 1016.9 hPa | 0 mm | - | - | - |
| 1777466107 | 12.78° C | 92% | 1016.9 hPa | 0 mm | - | - | - |
| 1777465807 | 12.78° C | 92% | 1017 hPa | 0 mm | - | - | - |
| 1777464606 | 12.22° C | 93% | 1016.7 hPa | 0 mm | - | - | - |
| 1777464306 | 12.22° C | 94% | 1016.7 hPa | 0 mm | - | - | - |
| 1777463707 | 11.67° C | 97% | 1016.3 hPa | 0 mm | - | - | - |
| 1777459806 | 9.44° C | 100% | 1015.3 hPa | 0 mm | - | - | - |
| 1777456505 | 7.78° C | 100% | 1015.5 hPa | 0 mm | - | - | - |
| 1777454406 | 7.78° C | 100% | 1015.8 hPa | 0 mm | - | - | - |
| 1777450805 | 7.78° C | 99% | 1015.8 hPa | 0 mm | - | - | - |
* Rain latest hour (hover to see other rain measurements)
** Current wind speed in m/s (hover to see current wind gust speed)